Campanya meteocatpedra

Dades EMA Tornabous

?
?
Resum diari 22:30 TU
Dades diàries de l'estació meteorològica
Temperatura mitjana 22.3 °C
Temperatura màxima 30.8 °C 16:12 TU
Temperatura mínima 11.9 °C 4:34 TU
Humitat relativa mitjana 54%
Precipitació acumulada 0.0 mm
Ratxa màxima del vent (2 m) 19.1 km/h - 172º 17:17 TU

El tram horari està expressat en Temps Universal (TU). Cal sumar una hora en horari d'hivern i dues en horari d'estiu per passar a l'hora oficial.

Tornabous

Metadades estació meteorol´gica
Municipi Tornabous
Comarca Urgell
Altitud 291 m
Data alta 06.08.2013
Estat actual Operativa
Dades de període
Període
TU
TM
°C
TX
°C
TN
°C
HRM
%
PPT
mm
VVM (2 m)
km/h
DVM (2 m)
graus
VVX (2 m)
km/h
00:00 - 00:30 15.3 15.6 15.1 75 0.0 0.4 94 3.2
00:30 - 01:00 15.4 15.7 15.3 75 0.0 1.8 78 7.9
01:00 - 01:30 15.8 16.0 15.7 73 0.0 1.4 89 9.0
01:30 - 02:00 15.6 15.7 15.5 75 0.0 0.4 91 5.0
02:00 - 02:30 15.4 15.7 15.1 75 0.0 0.4 106 5.4
02:30 - 03:00 15.4 15.8 14.6 74 0.0 1.1 93 6.8
03:00 - 03:30 13.9 14.5 13.3 84 0.0 0.0 82 0.7
03:30 - 04:00 13.0 13.3 12.7 88 0.0 0.0 74 1.8
04:00 - 04:30 12.3 12.7 12.1 90 0.0 0.0 0 0.0
04:30 - 05:00 12.2 12.3 11.9 91 0.0 0.0 114 2.2
05:00 - 05:30 13.3 14.5 12.3 85 0.0 0.4 51 5.4
05:30 - 06:00 15.7 16.8 14.6 74 0.0 1.4 84 6.8
06:00 - 06:30 17.3 18.2 16.8 69 0.0 3.6 92 8.6
06:30 - 07:00 19.5 20.8 18.3 64 0.0 2.9 88 7.2
07:00 - 07:30 21.6 22.7 20.8 57 0.0 3.6 84 9.4
07:30 - 08:00 23.2 24.0 22.4 53 0.0 3.2 92 8.3
08:00 - 08:30 24.7 25.4 23.9 48 0.0 1.8 83 6.1
08:30 - 09:00 26.1 26.8 25.3 42 0.0 0.7 133 4.7
09:00 - 09:30 26.1 26.8 25.7 42 0.0 1.8 276 8.6
09:30 - 10:00 26.2 26.7 26.0 43 0.0 4.3 314 10.1
10:00 - 10:30 26.7 27.0 26.3 42 0.0 4.3 272 11.2
10:30 - 11:00 27.1 27.5 26.7 40 0.0 5.4 281 13.7
11:00 - 11:30 27.8 28.2 27.4 38 0.0 4.0 268 11.9
11:30 - 12:00 28.2 28.5 28.1 38 0.0 4.0 269 11.9
12:00 - 12:30 28.5 29.0 28.0 38 0.0 4.3 268 15.1
12:30 - 13:00 28.8 29.2 28.5 37 0.0 4.3 280 13.0
13:00 - 13:30 29.3 29.5 29.0 35 0.0 3.6 284 14.0
13:30 - 14:00 29.6 29.9 29.4 36 0.0 3.2 291 11.5
14:00 - 14:30 30.1 30.4 29.8 35 0.0 2.2 256 10.4
14:30 - 15:00 29.9 30.1 29.7 35 0.0 2.9 293 10.4
15:00 - 15:30 30.1 30.3 29.9 35 0.0 2.5 287 9.0
15:30 - 16:00 30.2 30.4 30.0 34 0.0 1.4 262 7.2
16:00 - 16:30 30.4 30.8 30.2 34 0.0 0.7 272 10.1
16:30 - 17:00 29.8 30.6 28.9 35 0.0 5.4 175 15.5
17:00 - 17:30 28.4 28.9 27.9 36 0.0 8.3 168 19.1
17:30 - 18:00 27.2 27.8 26.8 37 0.0 6.8 160 17.3
18:00 - 18:30 26.2 26.7 25.5 37 0.0 6.1 164 15.5
18:30 - 19:00 24.8 25.5 24.0 40 0.0 4.3 162 11.9
19:00 - 19:30 23.4 24.0 22.9 42 0.0 4.3 158 11.5
19:30 - 20:00 21.8 22.9 20.3 48 0.0 1.4 130 7.2
20:00 - 20:30 19.1 20.2 17.8 61 0.0 0.0 40 4.0
20:30 - 21:00 17.9 18.3 17.6 64 0.0 0.4 48 3.6
21:00 - 21:30 18.0 18.3 17.6 61 0.0 0.4 81 3.2
21:30 - 22:00 17.5 17.8 17.1 62 0.0 1.1 84 4.7
22:00 - 22:30 16.4 17.0 15.8 68 0.0 0.0 119 0.7
22:30 - 23:00 (s/d) (s/d) (s/d) (s/d) (s/d) (s/d) (s/d) (s/d)

Les dades en taronja només han passat un control de qualitat automàtic. Resta pendent la seva validació definitiva.